»·PEaware :: N410VB 0O2-1L1

N410VB :: 0O2-1L1

FLIGHT INFORMATION

Flight Status: Arrived
Operator: Privately registered:
United States
More flights under this callsign
Pilot: Ben H. (9170)
Aircraft: GULFSTREAM 690 COMMANDER 840/900
(AC90)
More flights by this aircraft type
Origin: 0O2 Baker
United States
Destination: 1L1 Lincoln Co
United States
More flights between these airports :: More routes between these airports
Route: +CLARR V394 MMM V21 HUNKU
File this flight plan on PilotEdge
Remarks:
Altitude:
(Current/Filed)
19,000ft
Speed:
(Current/Filed)
200kts
Departed: 23-Mar-19 03:41 PM
Arrived: 23-Mar-19 04:29 PM
Distance/Time
Traveled:
170nm/0:48
Distance/Time
To Go:
Arrived

Flight Plot

Page will automatically refresh every two minutes.

Flight plan parsing failed; only flown route is shown


Map Options




Map Legend


Flown Route
Filed Route
Departure Airport
Arrival Airport
Navaid (VOR, NDB)
Fix

Horizontal Profiles

Position Reports

Time Latitude Longitude Heading Altitude Ground
Speed
23-Mar-19 15:26 35.287613 -116.081200 253 925ft 0kts
23-Mar-19 15:27 35.287613 -116.081200 253 925ft 0kts
23-Mar-19 15:28 35.287613 -116.081200 253 925ft 0kts
23-Mar-19 15:29 35.287613 -116.081200 253 925ft 0kts
23-Mar-19 15:30 35.287613 -116.081200 253 925ft 0kts
23-Mar-19 15:31 35.287613 -116.081200 253 925ft 0kts
23-Mar-19 15:32 35.287613 -116.081200 253 925ft 0kts
23-Mar-19 15:33 35.287613 -116.081200 253 925ft 0kts
23-Mar-19 15:33 35.287613 -116.081200 253 925ft 0kts
23-Mar-19 15:35 35.287613 -116.081200 253 925ft 0kts
23-Mar-19 15:36 35.287613 -116.081200 253 925ft 0kts
23-Mar-19 15:36 35.287613 -116.081200 253 925ft 0kts
23-Mar-19 15:37 35.287614 -116.081197 253 925ft 0kts
23-Mar-19 15:39 35.290280 -116.082585 135 926ft 7kts
23-Mar-19 15:39 35.290177 -116.082497 161 926ft 0kts
23-Mar-19 15:40 35.262917 -116.075308 164 2345ft 145kts
23-Mar-19 15:41 35.277139 -116.041156 357 5006ft 180kts
23-Mar-19 15:42 35.326757 -116.033518 24 7443ft 192kts
23-Mar-19 15:43 35.371048 -115.994096 37 9730ft 201kts
23-Mar-19 15:44 35.414713 -115.949503 39 12021ft 208kts
23-Mar-19 15:45 35.460280 -115.902547 38 14072ft 221kts
23-Mar-19 15:46 35.508530 -115.852723 37 15914ft 232kts
23-Mar-19 15:47 35.559155 -115.800412 36 17595ft 242kts
23-Mar-19 15:48 35.611446 -115.746290 35 19042ft 253kts
23-Mar-19 15:49 35.664465 -115.691466 37 19087ft 298kts
23-Mar-19 15:50 35.717786 -115.625377 41 20764ft 271kts
23-Mar-19 15:51 35.769393 -115.559429 40 22148ft 267kts
23-Mar-19 15:52 35.822225 -115.492248 39 23075ft 285kts
23-Mar-19 15:53 35.880800 -115.416954 41 23054ft 315kts
23-Mar-19 15:54 35.942271 -115.337518 41 23038ft 323kts
23-Mar-19 15:55 36.003870 -115.257876 41 23038ft 324kts
23-Mar-19 15:56 36.066620 -115.176610 42 23042ft 325kts
23-Mar-19 15:57 36.129738 -115.096134 41 23033ft 324kts
23-Mar-19 15:58 36.192762 -115.016564 42 23032ft 322kts
23-Mar-19 15:59 36.255473 -114.936992 42 23034ft 321kts
23-Mar-19 16:00 36.317292 -114.858324 42 23037ft 320kts
23-Mar-19 16:01 36.379558 -114.778896 42 23037ft 320kts
23-Mar-19 16:02 36.441832 -114.699263 42 23038ft 320kts
23-Mar-19 16:03 36.503867 -114.619739 42 23040ft 321kts
23-Mar-19 16:04 36.566092 -114.539773 42 23042ft 321kts
23-Mar-19 16:05 36.628145 -114.459832 42 23045ft 321kts
23-Mar-19 16:06 36.690306 -114.379549 42 23067ft 321kts
23-Mar-19 16:07 36.751859 -114.299860 43 23074ft 320kts
23-Mar-19 16:08 36.823283 -114.235241 25 23072ft 315kts
23-Mar-19 16:09 36.897767 -114.177535 25 23073ft 316kts
23-Mar-19 16:10 36.972281 -114.119605 25 23074ft 316kts
23-Mar-19 16:11 37.046968 -114.061334 27 23076ft 317kts
23-Mar-19 16:12 37.122111 -114.002556 28 23071ft 316kts
23-Mar-19 16:13 37.195883 -113.944892 28 22601ft 310kts
23-Mar-19 16:14 37.268393 -113.887759 29 21369ft 305kts
23-Mar-19 16:15 37.342144 -113.839920 0 20037ft 288kts
23-Mar-19 16:16 37.408132 -113.873247 303 18469ft 247kts
23-Mar-19 16:17 37.453041 -113.937164 302 17045ft 243kts
23-Mar-19 16:18 37.497242 -114.000983 303 15704ft 240kts
23-Mar-19 16:19 37.540967 -114.063789 303 14466ft 236kts
23-Mar-19 16:20 37.584115 -114.125821 304 13150ft 234kts
23-Mar-19 16:21 37.626862 -114.187430 305 11885ft 232kts
23-Mar-19 16:22 37.669342 -114.248838 306 10624ft 232kts
23-Mar-19 16:23 37.711266 -114.309532 308 9480ft 223kts
23-Mar-19 16:24 37.754337 -114.358746 319 8522ft 205kts
23-Mar-19 16:25 37.803874 -114.378533 352 7402ft 160kts
23-Mar-19 16:26 37.830566 -114.401236 222 6340ft 132kts
23-Mar-19 16:27 37.801365 -114.420403 175 5034ft 111kts
23-Mar-19 16:28 37.787516 -114.421753 271 4831ft 0kts
23-Mar-19 16:29 37.784250 -114.423422 345 4831ft 3kts
23-Mar-19 16:30 37.784339 -114.423652 222 4831ft 0kts
23-Mar-19 16:31 37.784339 -114.423652 222 4831ft 0kts
23-Mar-19 16:32 37.784339 -114.423652 222 4831ft 0kts

Navigation Log

Ident Type
Flight plan parsing failed, navigation log unavailable